Arcola, Virginia
Current Conditions -  °F | °C
As of 5:52 AM on Friday 19 Dec 2014 (Local Time) from KIAD Reporting Station
Broken Clouds Broken Clouds  
Wind Chill: -5°   Ceiling: 3500
Heat Index:   Visibility: 10mi
Dew Point: -6°   Wind: 10mph
Humidity: 66%   Direction: 300°WNW
Pressure: 30.12"   Gusts: NA
Location:  38.95°N, 77.53°W
Report Text: KIAD 191052Z 30009KT 10SM BKN035 BKN100 00/M06 A3012 RMK AO2 SLP201 T00001056
Loading
Personal Weather Stations






























Interactive Weather Map New forecast layout! Learn more

10-Day Weather Forecast

Advertisements
Track Severe Weather on mobile